VIAG/AGR METAR and TAF weather

Enter ICAO airport designator
Station Type Date Time Source
VIAG METAR 2020/09/22 17:30 UTC NOAA

VIAG 221730Z 09005KT 6000 FEW030 SCT250 28/26 Q1001 NOSIG


Station Type Date Time Source
VIAG Decoded METAR 2020/09/22 17:30 UTC NOAA

Agra, India (VIAG) 27-09N 077-58E 169M
Sep 22, 2020 - 01:30 PM EDT / 2020.09.22 1730 UTC
Wind: from the E (090 degrees) at 6 MPH (5 KT):0
Visibility: 3 mile(s):0
Sky conditions: partly cloudy
Temperature: 82 F (28 C)
Dew Point: 78 F (26 C)
Relative Humidity: 88%
Pressure (altimeter): 29.56 in. Hg (1001 hPa)
ob: VIAG 221730Z 09005KT 6000 FEW030 SCT250 28/26 Q1001 NOSIG
cycle: 17

Station Type Date Time Source
VIAG TAF 2020/09/22 18:30 UTC NOAA

TAF VIAG 221530Z 2218/2306 VRB02KT 6000 FEW030 SCT250
BECMG 2300/2303 4000 BR
BECMG 2304/2305 04005KT 6000

Example: see airport list